Hc Svea Kim — V2BB — position and weather

sailwx.info

Track history (hours):
 
Tides and Currents Weather Stations Pressure Air Temp Water Temp Dewpoint Dewpoint Depression Visibility Wind Speed Wind Dir Waves Ship Positions

Hc Svea Kim

Last reported at 2015-Mar-12 21:26 UTC. Time now 2015-Mar-30 16:19 UTC.
Position N 43°41' W 001°50'.
Warning: this ship's position is 17 days out of date.

Length 129 m; draft 6.2 m.

Type: Cargo ship. MMSI: 304182000.

Date/timePositionNaut miles runAvg speedWind from/ knotsBaromVisibWave heightAir tempDewpointWater temp
2015-Mar-12 21:26N 43°41' W 001°50'1011.1
2015-Mar-12 20:33N 43°34' W 001°40'5 5.2
2015-Mar-12 19:33N 43°32' W 001°34'2 2.3
2015-Mar-12 18:32N 43°32' W 001°31'0 0.0
2015-Mar-12 15:21N 43°32' W 001°31'0 0.0
2015-Mar-12 07:21N 43°32' W 001°31'0 0.0
2015-Mar-11 15:24N 43°32' W 001°31'0 0.0
2015-Mar-11 07:30N 43°32' W 001°31'0 0.0
2015-Mar-11 05:33N 43°32' W 001°31'0 0.0
2015-Mar-11 01:12N 43°32' W 001°31'0 0.0
2015-Mar-10 23:18N 43°32' W 001°31'0 0.0
2015-Mar-10 22:18N 43°32' W 001°31'0 0.0
2015-Mar-10 21:21N 43°32' W 001°31'0 0.0
2015-Mar-10 20:15N 43°32' W 001°31'0 0.0
2015-Mar-10 18:24N 43°32' W 001°31'0 0.0
2015-Mar-10 16:18N 43°32' W 001°31'0 0.0
2015-Mar-10 09:06N 43°32' W 001°31'0 0.0
2015-Mar-09 22:15N 43°32' W 001°31'0 0.0
2015-Mar-09 18:06N 43°32' W 001°31'0 0.0
2015-Mar-09 15:24N 43°32' W 001°31'0 0.0
2015-Mar-09 14:33N 43°32' W 001°31'0 0.0
2015-Mar-09 13:24N 43°32' W 001°31'0 0.0
2015-Mar-09 07:33N 43°32' W 001°31'0 0.0
2015-Mar-09 06:09N 43°32' W 001°31'0 0.0
2015-Mar-09 05:33N 43°32' W 001°31'0 0.0
2015-Mar-09 03:15N 43°32' W 001°31'0 0.0
2015-Mar-09 01:18N 43°32' W 001°31'0 0.0
2015-Mar-09 00:15N 43°32' W 001°31'0 0.0
2015-Mar-08 23:27N 43°32' W 001°31'0 0.0
2015-Mar-08 22:21N 43°32' W 001°31'0 0.0
2015-Mar-08 19:06N 43°32' W 001°31'0 0.0
2015-Mar-08 18:33N 43°32' W 001°31'0 0.0
2015-Mar-08 17:15N 43°32' W 001°31'0 0.0
2015-Mar-08 14:27N 43°32' W 001°31'0 0.0
2015-Mar-08 12:24N 43°32' W 001°31'0 0.0
2015-Mar-08 11:09N 43°32' W 001°31'0 0.0
2015-Mar-08 06:24N 43°32' W 001°31'3 3.0
2015-Mar-08 05:31N 43°33' W 001°34'0 0.0
2015-Mar-08 04:31N 43°33' W 001°34'0 0.0
2015-Mar-08 03:34N 43°33' W 001°34'0 0.0
2015-Mar-08 02:25N 43°33' W 001°34'0 0.0
2015-Mar-08 01:29N 43°33' W 001°34'0 0.1
2015-Mar-08 00:32N 43°33' W 001°34'0 0.1
2015-Mar-07 23:32N 43°33' W 001°34'0 0.0
2015-Mar-07 22:32N 43°33' W 001°34'0 0.0
2015-Mar-07 21:32N 43°33' W 001°34'0 0.0
2015-Mar-07 20:32N 43°33' W 001°34'0 0.1
2015-Mar-07 19:32N 43°33' W 001°34'3 2.7
2015-Mar-07 18:34N 43°34' W 001°38'1111.4
2015-Mar-07 17:34N 43°37' W 001°53'1111.4
2015-Mar-07 16:34N 43°39' W 002°08'1111.4
2015-Mar-07 15:33N 43°41' W 002°24'1111.2
2015-Mar-07 14:33N 43°42' W 002°39'1111.1
2015-Mar-07 13:33N 43°43' W 002°54'1111.1
2015-Mar-07 12:33N 43°44' W 003°10'3510.8
2015-Mar-07 09:20N 43°42' W 003°58'810.8
2015-Mar-07 08:33N 43°43' W 004°10'8 7.4
2015-Mar-07 07:30N 43°43' W 004°20'1010.3
2015-Mar-07 06:31N 43°44' W 004°34'1111.1
2015-Mar-07 05:32N 43°45' W 004°49'1211.8
2015-Mar-07 04:30N 43°47' W 005°06'  
2015-Mar-03 00:20N 39°07' W 028°26'7 8.5
2015-Mar-02 23:33N 39°05' W 028°34'8 8.1
2015-Mar-02 22:33N 39°03' W 028°44'8 7.6
2015-Mar-02 21:33N 38°59' W 028°53'  
Track history (hours):
 
Tides and Currents Weather Stations Pressure Air Temp Water Temp Dewpoint Dewpoint Depression Visibility Wind Speed Wind Dir Waves Ship Positions

Hc Svea Kim

Last reported at 2015-Mar-12 21:26 UTC. Time now 2015-Mar-30 16:19 UTC.
Position N 43°41' W 001°50'.
Warning: this ship's position is 17 days out of date.

Length 129 m; draft 6.2 m.

Type: Cargo ship. MMSI: 304182000.

Date/timePositionNaut miles runAvg speedWind from/ knotsBaromVisibWave heightAir tempDewpointWater temp
2015-Mar-12 21:26N 43°41' W 001°50'1011.1
2015-Mar-12 20:33N 43°34' W 001°40'5 5.2
2015-Mar-12 19:33N 43°32' W 001°34'2 2.3
2015-Mar-12 18:32N 43°32' W 001°31'0 0.0
2015-Mar-12 15:21N 43°32' W 001°31'0 0.0
2015-Mar-12 07:21N 43°32' W 001°31'0 0.0
2015-Mar-11 15:24N 43°32' W 001°31'0 0.0
2015-Mar-11 07:30N 43°32' W 001°31'0 0.0
2015-Mar-11 05:33N 43°32' W 001°31'0 0.0
2015-Mar-11 01:12N 43°32' W 001°31'0 0.0
2015-Mar-10 23:18N 43°32' W 001°31'0 0.0
2015-Mar-10 22:18N 43°32' W 001°31'0 0.0
2015-Mar-10 21:21N 43°32' W 001°31'0 0.0
2015-Mar-10 20:15N 43°32' W 001°31'0 0.0
2015-Mar-10 18:24N 43°32' W 001°31'0 0.0
2015-Mar-10 16:18N 43°32' W 001°31'0 0.0
2015-Mar-10 09:06N 43°32' W 001°31'0 0.0
2015-Mar-09 22:15N 43°32' W 001°31'0 0.0
2015-Mar-09 18:06N 43°32' W 001°31'0 0.0
2015-Mar-09 15:24N 43°32' W 001°31'0 0.0
2015-Mar-09 14:33N 43°32' W 001°31'0 0.0
2015-Mar-09 13:24N 43°32' W 001°31'0 0.0
2015-Mar-09 07:33N 43°32' W 001°31'0 0.0
2015-Mar-09 06:09N 43°32' W 001°31'0 0.0
2015-Mar-09 05:33N 43°32' W 001°31'0 0.0
2015-Mar-09 03:15N 43°32' W 001°31'0 0.0
2015-Mar-09 01:18N 43°32' W 001°31'0 0.0
2015-Mar-09 00:15N 43°32' W 001°31'0 0.0
2015-Mar-08 23:27N 43°32' W 001°31'0 0.0
2015-Mar-08 22:21N 43°32' W 001°31'0 0.0
2015-Mar-08 19:06N 43°32' W 001°31'0 0.0
2015-Mar-08 18:33N 43°32' W 001°31'0 0.0
2015-Mar-08 17:15N 43°32' W 001°31'0 0.0
2015-Mar-08 14:27N 43°32' W 001°31'0 0.0
2015-Mar-08 12:24N 43°32' W 001°31'0 0.0
2015-Mar-08 11:09N 43°32' W 001°31'0 0.0
2015-Mar-08 06:24N 43°32' W 001°31'3 3.0
2015-Mar-08 05:31N 43°33' W 001°34'0 0.0
2015-Mar-08 04:31N 43°33' W 001°34'0 0.0
2015-Mar-08 03:34N 43°33' W 001°34'0 0.0
2015-Mar-08 02:25N 43°33' W 001°34'0 0.0
2015-Mar-08 01:29N 43°33' W 001°34'0 0.1
2015-Mar-08 00:32N 43°33' W 001°34'0 0.1
2015-Mar-07 23:32N 43°33' W 001°34'0 0.0
2015-Mar-07 22:32N 43°33' W 001°34'0 0.0
2015-Mar-07 21:32N 43°33' W 001°34'0 0.0
2015-Mar-07 20:32N 43°33' W 001°34'0 0.1
2015-Mar-07 19:32N 43°33' W 001°34'3 2.7
2015-Mar-07 18:34N 43°34' W 001°38'1111.4
2015-Mar-07 17:34N 43°37' W 001°53'1111.4
2015-Mar-07 16:34N 43°39' W 002°08'1111.4
2015-Mar-07 15:33N 43°41' W 002°24'1111.2
2015-Mar-07 14:33N 43°42' W 002°39'1111.1
2015-Mar-07 13:33N 43°43' W 002°54'1111.1
2015-Mar-07 12:33N 43°44' W 003°10'3510.8
2015-Mar-07 09:20N 43°42' W 003°58'810.8
2015-Mar-07 08:33N 43°43' W 004°10'8 7.4
2015-Mar-07 07:30N 43°43' W 004°20'1010.3
2015-Mar-07 06:31N 43°44' W 004°34'1111.1
2015-Mar-07 05:32N 43°45' W 004°49'1211.8
2015-Mar-07 04:30N 43°47' W 005°06'  
2015-Mar-03 00:20N 39°07' W 028°26'7 8.5
2015-Mar-02 23:33N 39°05' W 028°34'8 8.1
2015-Mar-02 22:33N 39°03' W 028°44'8 7.6
2015-Mar-02 21:33N 38°59' W 028°53'  

Dump ship's entire track history